createdAt,value
2023-04-27T00:02:20.693Z,46.59
2023-04-27T00:04:50.213Z,47.20
2023-04-27T00:07:19.414Z,46.39
2023-04-27T00:09:46.863Z,46.13
2023-04-27T00:12:14.862Z,47.79
2023-04-27T00:14:42.189Z,48.03
2023-04-27T00:17:09.640Z,46.79
2023-04-27T00:19:37.730Z,46.65
2023-04-27T00:22:06.479Z,46.82
2023-04-27T00:24:35.348Z,47.35
2023-04-27T00:27:03.667Z,47.51
2023-04-27T00:29:30.897Z,47.20
2023-04-27T00:31:58.299Z,46.56
2023-04-27T00:34:26.019Z,46.44
2023-04-27T00:36:53.432Z,46.39
2023-04-27T00:39:21.478Z,45.95
2023-04-27T00:41:49.396Z,45.97
2023-04-27T00:44:26.437Z,46.22
2023-04-27T00:46:54.511Z,46.89
2023-04-27T00:49:22.575Z,46.28
2023-04-27T00:51:50.222Z,46.51
2023-04-27T00:54:23.834Z,46.72
2023-04-27T00:56:52.659Z,46.33
2023-04-27T00:59:20.389Z,46.50
2023-04-27T01:01:48.069Z,46.82
2023-04-27T01:04:18.196Z,46.79
2023-04-27T01:06:45.921Z,46.55
2023-04-27T01:09:14.173Z,46.50
2023-04-27T01:11:43.297Z,46.49
2023-04-27T01:14:10.591Z,46.97
2023-04-27T01:16:38.073Z,46.74
2023-04-27T01:19:07.291Z,46.85
2023-04-27T01:21:34.600Z,47.39
2023-04-27T01:24:02.000Z,47.37
2023-04-27T01:26:30.184Z,48.40
2023-04-27T01:28:57.722Z,49.27
2023-04-27T01:31:27.951Z,49.55
2023-04-27T01:33:57.907Z,49.12
2023-04-27T01:36:25.493Z,49.27
2023-04-27T01:38:53.066Z,49.43
2023-04-27T01:41:20.972Z,49.83
2023-04-27T01:43:49.140Z,50.02
2023-04-27T01:46:16.663Z,49.52
2023-04-27T01:48:46.721Z,49.84
2023-04-27T01:51:14.398Z,49.17
2023-04-27T01:53:42.430Z,50.14
2023-04-27T01:56:10.479Z,50.83
2023-04-27T01:58:37.924Z,50.72
2023-04-27T02:01:09.172Z,50.48
2023-04-27T02:03:36.998Z,50.54
2023-04-27T02:06:06.057Z,50.16
2023-04-27T02:08:34.200Z,50.74
2023-04-27T02:11:02.038Z,51.04
2023-04-27T02:13:30.920Z,50.86
2023-04-27T02:16:03.086Z,51.17
2023-04-27T02:18:32.612Z,51.33
2023-04-27T02:21:02.246Z,51.94
2023-04-27T02:23:29.628Z,51.37
2023-04-27T02:25:58.690Z,50.97
2023-04-27T02:28:26.106Z,51.82
2023-04-27T02:30:54.892Z,52.12
2023-04-27T02:33:22.892Z,52.84
2023-04-27T02:35:55.435Z,52.42
2023-04-27T02:38:23.608Z,52.99
2023-04-27T02:40:55.234Z,52.95
2023-04-27T02:43:26.111Z,53.18
2023-04-27T02:45:53.996Z,52.93
2023-04-27T02:48:22.834Z,52.97
2023-04-27T02:50:56.929Z,52.69
2023-04-27T02:53:24.570Z,52.87
2023-04-27T02:55:55.080Z,52.75
2023-04-27T02:58:22.807Z,52.18
2023-04-27T03:00:55.898Z,52.05
2023-04-27T03:03:24.232Z,52.66
2023-04-27T03:05:55.124Z,52.15
2023-04-27T03:08:24.228Z,52.14
2023-04-27T03:10:54.205Z,51.73
2023-04-27T03:13:22.579Z,51.92
2023-04-27T03:15:50.222Z,52.27
2023-04-27T03:18:20.118Z,52.41
2023-04-27T03:20:47.522Z,52.13
2023-04-27T03:23:16.155Z,52.04
2023-04-27T03:25:44.098Z,52.15
2023-04-27T03:28:11.523Z,52.37
2023-04-27T03:30:41.256Z,52.75
2023-04-27T03:33:08.981Z,52.44
2023-04-27T03:35:36.767Z,52.26
2023-04-27T03:38:05.013Z,52.05
2023-04-27T03:40:33.519Z,52.33
2023-04-27T03:43:02.052Z,52.71
2023-04-27T03:45:31.229Z,52.79
2023-04-27T03:48:00.518Z,52.57
2023-04-27T03:50:30.180Z,52.69
2023-04-27T03:52:57.798Z,52.58
2023-04-27T03:55:28.315Z,53.04
2023-04-27T03:57:56.712Z,53.73
2023-04-27T04:00:25.479Z,53.75
2023-04-27T04:02:54.297Z,53.48
2023-04-27T04:05:22.615Z,53.43
2023-04-27T04:07:50.090Z,52.89
2023-04-27T04:10:20.444Z,53.47
2023-04-27T04:12:48.645Z,53.15
2023-04-27T04:15:16.946Z,52.46
2023-04-27T04:17:45.144Z,53.10
2023-04-27T04:20:12.653Z,53.10
2023-04-27T04:22:41.985Z,53.19
2023-04-27T04:25:09.967Z,51.50
2023-04-27T04:27:38.278Z,51.10
2023-04-27T04:30:12.049Z,50.04
2023-04-27T04:32:41.656Z,49.68
2023-04-27T04:35:11.329Z,50.93
2023-04-27T04:37:39.015Z,51.04
2023-04-27T04:40:11.106Z,50.44
2023-04-27T04:42:39.450Z,50.54
2023-04-27T04:45:08.067Z,50.18
2023-04-27T04:47:36.936Z,49.11
2023-04-27T04:50:05.889Z,48.91
2023-04-27T04:52:37.482Z,48.84
2023-04-27T04:55:05.855Z,48.37
2023-04-27T04:57:33.830Z,48.17
2023-04-27T05:00:07.045Z,47.31
2023-04-27T05:02:35.067Z,46.96
2023-04-27T05:05:11.120Z,46.05
2023-04-27T05:07:39.247Z,46.06
2023-04-27T05:10:09.317Z,45.76
2023-04-27T05:12:39.198Z,45.50
2023-04-27T05:15:08.143Z,45.15
2023-04-27T05:17:37.426Z,44.88
2023-04-27T05:20:05.393Z,44.44
2023-04-27T05:22:33.312Z,43.78
2023-04-27T05:25:07.016Z,43.21
2023-04-27T05:27:35.950Z,43.14
2023-04-27T05:30:03.971Z,42.65
2023-04-27T05:32:33.897Z,41.92
2023-04-27T05:35:01.965Z,41.69
2023-04-27T05:37:31.336Z,40.82
2023-04-27T05:40:00.405Z,40.85
2023-04-27T05:42:33.382Z,40.68
2023-04-27T05:45:02.261Z,41.34
2023-04-27T05:47:31.588Z,40.90
2023-04-27T05:50:01.316Z,41.02
2023-04-27T05:52:31.416Z,39.89
2023-04-27T05:54:59.457Z,40.08
2023-04-27T05:57:30.717Z,38.44
2023-04-27T06:00:06.038Z,38.48
2023-04-27T06:02:42.209Z,37.96
2023-04-27T06:05:10.198Z,37.55
2023-04-27T06:07:38.307Z,38.30
2023-04-27T06:10:08.158Z,36.48
2023-04-27T06:12:43.469Z,36.46
2023-04-27T06:15:13.122Z,37.64
2023-04-27T06:17:41.414Z,37.48
2023-04-27T06:20:12.280Z,37.72
2023-04-27T06:22:47.144Z,37.80
2023-04-27T06:25:15.346Z,37.03
2023-04-27T06:27:43.241Z,38.86
2023-04-27T06:30:11.934Z,38.51
2023-04-27T06:32:40.196Z,37.21
2023-04-27T06:35:08.247Z,36.87
2023-04-27T06:37:36.168Z,35.35
2023-04-27T06:40:07.005Z,35.54
2023-04-27T06:42:35.399Z,34.21
2023-04-27T06:45:04.779Z,34.08
2023-04-27T06:47:32.919Z,33.85
2023-04-27T06:50:04.448Z,32.50
2023-04-27T06:52:34.091Z,33.93
2023-04-27T06:55:01.900Z,32.50
2023-04-27T06:57:31.507Z,32.32
2023-04-27T06:59:59.008Z,32.09
2023-04-27T07:02:28.514Z,31.94
2023-04-27T07:05:03.226Z,31.45
2023-04-27T07:07:34.444Z,31.09
2023-04-27T07:10:02.160Z,29.81
2023-04-27T07:12:31.553Z,30.01
2023-04-27T07:15:00.220Z,29.13
2023-04-27T07:17:29.474Z,29.97
2023-04-27T07:19:57.393Z,27.95
2023-04-27T07:22:27.309Z,28.40
2023-04-27T07:24:58.509Z,28.55
2023-04-27T07:27:27.600Z,27.36
2023-04-27T07:29:55.237Z,27.58
2023-04-27T07:32:24.042Z,28.59
2023-04-27T07:34:57.186Z,28.46
2023-04-27T07:37:27.103Z,29.06
2023-04-27T07:40:00.190Z,27.96
2023-04-27T07:42:29.873Z,29.77
2023-04-27T07:44:58.848Z,30.25
2023-04-27T07:47:26.893Z,28.97
2023-04-27T07:49:55.995Z,29.04
2023-04-27T07:52:24.960Z,28.54
2023-04-27T07:54:52.794Z,28.90
2023-04-27T07:57:20.309Z,28.50
2023-04-27T07:59:53.225Z,27.16
2023-04-27T08:02:21.199Z,28.11
2023-04-27T08:04:50.335Z,27.32
2023-04-27T08:07:19.418Z,29.24
2023-04-27T08:09:47.973Z,28.87
2023-04-27T08:12:16.707Z,28.30
2023-04-27T08:14:46.485Z,28.61
2023-04-27T08:17:15.983Z,25.89
2023-04-27T08:19:45.711Z,27.11
2023-04-27T08:22:13.708Z,27.60
2023-04-27T08:24:41.528Z,26.71
2023-04-27T08:27:13.048Z,27.58
2023-04-27T08:29:44.847Z,28.61
2023-04-27T08:32:15.319Z,27.89
2023-04-27T08:34:46.569Z,27.81
2023-04-27T08:37:18.819Z,25.63
2023-04-27T08:39:55.211Z,27.22
2023-04-27T08:42:24.056Z,28.04
2023-04-27T08:44:58.251Z,25.47
2023-04-27T08:47:41.194Z,27.19
2023-04-27T08:50:11.031Z,26.56
2023-04-27T08:52:47.246Z,26.64
2023-04-27T08:55:16.677Z,26.13
2023-04-27T08:58:04.969Z,24.90
2023-04-27T09:00:42.208Z,24.02
2023-04-27T09:03:23.887Z,26.32
2023-04-27T09:06:03.678Z,25.51
2023-04-27T09:08:45.726Z,24.49
2023-04-27T09:11:14.054Z,23.11
2023-04-27T09:13:45.775Z,25.48
2023-04-27T09:16:21.609Z,26.14
2023-04-27T09:18:50.588Z,24.82
2023-04-27T09:21:28.141Z,26.29
2023-04-27T09:23:56.358Z,25.35
2023-04-27T09:26:28.110Z,24.56
2023-04-27T09:28:57.838Z,24.63
2023-04-27T09:31:32.882Z,23.63
2023-04-27T09:34:01.096Z,24.37
2023-04-27T09:36:29.168Z,22.74
2023-04-27T09:38:56.869Z,23.64
2023-04-27T09:41:25.118Z,24.67
2023-04-27T09:43:58.573Z,22.68
2023-04-27T09:46:26.688Z,23.33
2023-04-27T09:48:59.962Z,24.20
2023-04-27T09:51:28.740Z,23.74
2023-04-27T09:53:59.205Z,27.02
2023-04-27T09:56:51.154Z,24.70
2023-04-27T09:59:37.597Z,24.07
2023-04-27T10:02:20.871Z,25.62
2023-04-27T10:05:12.399Z,24.33
2023-04-27T10:07:41.704Z,26.27
2023-04-27T10:10:17.107Z,25.69
2023-04-27T10:12:44.608Z,23.56
2023-04-27T10:15:14.533Z,24.65
2023-04-27T10:17:54.282Z,23.27
2023-04-27T10:20:36.088Z,22.77
2023-04-27T10:23:03.957Z,22.53
2023-04-27T10:25:39.983Z,22.11
2023-04-27T10:28:10.441Z,22.86
2023-04-27T10:30:46.464Z,22.81
2023-04-27T10:33:16.802Z,24.60
2023-04-27T10:35:59.114Z,22.93
2023-04-27T10:38:30.491Z,24.27
2023-04-27T10:41:02.169Z,25.11
2023-04-27T10:43:31.976Z,21.94
2023-04-27T10:46:15.268Z,23.01
2023-04-27T10:48:56.173Z,23.69
2023-04-27T10:51:24.278Z,23.50
2023-04-27T10:53:53.265Z,22.84
2023-04-27T10:56:24.118Z,23.17
2023-04-27T10:58:52.122Z,25.33
2023-04-27T11:01:33.298Z,23.46
2023-04-27T11:04:02.899Z,24.76
2023-04-27T11:06:34.347Z,24.18
2023-04-27T11:09:06.664Z,23.12
2023-04-27T11:11:34.461Z,23.90
2023-04-27T11:14:03.826Z,22.31
2023-04-27T11:16:36.387Z,23.00
2023-04-27T11:19:05.396Z,23.27
2023-04-27T11:21:32.810Z,24.04
2023-04-27T11:24:09.974Z,22.13
2023-04-27T11:26:39.057Z,22.36
2023-04-27T11:29:13.359Z,22.80
2023-04-27T11:31:54.212Z,23.04
2023-04-27T11:34:23.609Z,23.11
2023-04-27T11:37:14.327Z,20.98
2023-04-27T11:39:49.222Z,21.22
2023-04-27T11:42:26.229Z,21.58
2023-04-27T11:44:54.724Z,22.87
2023-04-27T11:47:26.194Z,21.73
2023-04-27T11:50:00.676Z,22.65
2023-04-27T11:52:29.884Z,22.11
2023-04-27T11:54:57.714Z,21.66
2023-04-27T11:57:29.672Z,22.42
2023-04-27T12:00:02.137Z,21.88
2023-04-27T12:02:42.516Z,21.71
2023-04-27T12:05:14.903Z,20.91
2023-04-27T12:07:47.127Z,22.64
2023-04-27T12:10:15.290Z,21.21
2023-04-27T12:12:43.039Z,22.76
2023-04-27T12:15:21.052Z,21.32
2023-04-27T12:17:50.238Z,21.75
2023-04-27T12:20:20.503Z,22.43
2023-04-27T12:22:49.112Z,21.92
2023-04-27T12:25:18.264Z,21.44
2023-04-27T12:27:52.178Z,21.80
2023-04-27T12:30:22.978Z,21.15
2023-04-27T12:33:01.178Z,21.42
2023-04-27T12:35:32.962Z,21.40
2023-04-27T12:38:02.972Z,21.87
2023-04-27T12:40:32.902Z,23.00
2023-04-27T12:43:01.567Z,22.89
2023-04-27T12:45:30.560Z,22.27
2023-04-27T12:48:04.414Z,23.03
2023-04-27T12:50:39.638Z,23.71
2023-04-27T12:53:16.330Z,22.91
2023-04-27T12:55:57.075Z,24.63
2023-04-27T12:58:25.009Z,22.54
2023-04-27T13:00:52.416Z,23.86
2023-04-27T13:06:11.948Z,22.36
2023-04-27T13:08:42.145Z,21.54
2023-04-27T13:11:16.688Z,23.67
2023-04-27T13:13:45.104Z,22.24
2023-04-27T13:16:26.897Z,22.57
2023-04-27T13:18:58.131Z,22.66
2023-04-27T13:21:30.401Z,22.04
2023-04-27T13:24:02.374Z,21.61
2023-04-27T13:26:31.700Z,21.74
2023-04-27T13:29:02.275Z,22.82
2023-04-27T13:31:32.897Z,22.95
2023-04-27T13:34:06.008Z,23.18
2023-04-27T13:36:40.083Z,22.20
2023-04-27T13:39:10.260Z,20.56
2023-04-27T13:41:41.068Z,20.42
2023-04-27T13:44:09.246Z,22.35
2023-04-27T13:46:41.242Z,22.89
2023-04-27T13:49:11.070Z,22.27
2023-04-27T13:51:40.900Z,22.24
2023-04-27T13:54:09.557Z,22.08
2023-04-27T13:59:16.338Z,23.57
2023-04-27T14:01:48.022Z,22.48
2023-04-27T14:04:24.517Z,22.93
2023-04-27T14:06:56.443Z,21.28
2023-04-27T14:09:27.390Z,21.71
2023-04-27T14:11:57.890Z,22.18
2023-04-27T14:14:27.414Z,22.30
2023-04-27T14:16:57.838Z,22.34
2023-04-27T14:19:28.017Z,22.59
2023-04-27T14:22:03.006Z,22.94
2023-04-27T14:24:31.432Z,23.35
2023-04-27T14:27:03.753Z,22.69
2023-04-27T14:29:31.691Z,23.16
2023-04-27T14:31:59.643Z,23.35
2023-04-27T14:34:36.080Z,23.55
2023-04-27T14:37:13.106Z,23.08
2023-04-27T14:39:42.836Z,22.85
2023-04-27T14:42:13.401Z,22.89
2023-04-27T14:44:44.247Z,23.31
2023-04-27T14:47:15.817Z,24.10
2023-04-27T14:49:45.089Z,23.40
2023-04-27T14:54:49.521Z,23.44
2023-04-27T14:57:18.065Z,22.61
2023-04-27T14:59:52.544Z,23.16
2023-04-27T15:02:24.005Z,23.23
2023-04-27T15:04:58.654Z,23.93
2023-04-27T15:07:33.225Z,23.50
2023-04-27T15:10:01.558Z,22.34
2023-04-27T15:12:30.442Z,23.19
2023-04-27T15:15:01.132Z,23.15
2023-04-27T15:17:30.210Z,24.19
2023-04-27T15:19:58.145Z,24.04
2023-04-27T15:25:13.432Z,24.45
2023-04-27T15:27:42.033Z,23.42
2023-04-27T15:30:21.030Z,23.31
2023-04-27T15:32:55.244Z,23.85
2023-04-27T15:35:25.393Z,23.49
2023-04-27T15:37:54.159Z,24.28
2023-04-27T15:40:22.432Z,23.81
2023-04-27T15:42:50.881Z,24.03
2023-04-27T15:45:24.093Z,24.87
2023-04-27T15:47:53.739Z,24.36
2023-04-27T15:50:27.037Z,24.81
2023-04-27T15:52:56.405Z,23.69
2023-04-27T15:55:24.503Z,23.55
2023-04-27T15:57:56.520Z,24.17
2023-04-27T16:00:27.359Z,23.43
2023-04-27T16:02:56.646Z,23.66
2023-04-27T16:05:30.084Z,23.63
2023-04-27T16:08:00.392Z,25.21
2023-04-27T16:10:35.385Z,24.48
2023-04-27T16:13:07.073Z,23.35
2023-04-27T16:15:37.076Z,23.66
2023-04-27T16:18:06.643Z,24.16
2023-04-27T16:20:43.334Z,23.77
2023-04-27T16:23:22.345Z,24.23
2023-04-27T16:25:50.037Z,24.50
2023-04-27T16:28:21.414Z,24.23
2023-04-27T16:30:51.410Z,24.49
2023-04-27T16:33:21.317Z,24.83
2023-04-27T16:35:50.055Z,24.63
2023-04-27T16:38:19.247Z,24.70
2023-04-27T16:40:51.119Z,25.01
2023-04-27T16:43:20.132Z,25.51
2023-04-27T16:48:32.114Z,25.14
2023-04-27T16:51:07.036Z,25.07
2023-04-27T16:53:38.362Z,23.94
2023-04-27T16:56:06.979Z,25.77
2023-04-27T16:58:57.264Z,26.01
2023-04-27T17:01:33.246Z,25.79
2023-04-27T17:04:04.207Z,25.02
2023-04-27T17:06:35.060Z,24.43
2023-04-27T17:09:10.392Z,24.51
2023-04-27T17:11:44.240Z,24.53
2023-04-27T17:14:23.615Z,25.98
2023-04-27T17:16:53.075Z,25.67
2023-04-27T17:19:21.252Z,25.14
2023-04-27T17:24:36.044Z,27.76
2023-04-27T17:27:07.104Z,28.09
2023-04-27T17:29:47.142Z,27.49
2023-04-27T17:34:59.303Z,28.65
2023-04-27T17:37:34.420Z,27.94
2023-04-27T17:40:08.018Z,26.71
2023-04-27T17:42:36.126Z,26.69
2023-04-27T17:45:14.094Z,27.20
2023-04-27T17:47:44.150Z,27.04
2023-04-27T17:50:21.076Z,29.25
2023-04-27T17:55:31.349Z,29.87
2023-04-27T17:57:59.348Z,29.53
2023-04-27T18:00:27.394Z,30.70
2023-04-27T18:03:01.094Z,30.58
2023-04-27T18:05:30.220Z,31.24
2023-04-27T18:08:01.085Z,31.43
2023-04-27T18:10:37.208Z,32.01
2023-04-27T18:13:09.419Z,31.97
2023-04-27T18:15:44.278Z,34.22
2023-04-27T18:18:20.155Z,33.57
2023-04-27T18:21:00.082Z,34.46
2023-04-27T18:23:38.052Z,35.04
2023-04-27T18:26:09.768Z,35.18
2023-04-27T18:28:50.347Z,35.51
2023-04-27T18:31:24.838Z,35.84
2023-04-27T18:34:02.038Z,36.62
2023-04-27T18:36:41.097Z,36.60
2023-04-27T18:39:13.506Z,36.82
2023-04-27T18:41:46.242Z,37.66
2023-04-27T18:44:23.282Z,37.38
2023-04-27T18:46:52.093Z,37.45
2023-04-27T18:49:20.938Z,37.62
2023-04-27T18:51:48.782Z,38.21
2023-04-27T18:54:18.024Z,37.84
2023-04-27T18:56:54.090Z,37.50
2023-04-27T18:59:22.087Z,38.23
2023-04-27T19:01:54.544Z,38.52
2023-04-27T19:04:25.492Z,39.22
2023-04-27T19:06:56.113Z,39.37
2023-04-27T19:09:25.542Z,39.54
2023-04-27T19:12:02.927Z,39.81
2023-04-27T19:14:34.942Z,40.16
2023-04-27T19:17:06.638Z,40.64
2023-04-27T19:19:46.160Z,40.96
2023-04-27T19:22:14.660Z,42.08
2023-04-27T19:24:43.999Z,41.74
2023-04-27T19:27:18.090Z,41.57
2023-04-27T19:29:55.009Z,41.21
2023-04-27T19:32:32.030Z,41.10
2023-04-27T19:35:00.831Z,42.24
2023-04-27T19:37:31.467Z,41.82
2023-04-27T19:39:58.949Z,42.60
2023-04-27T19:42:28.429Z,42.89
2023-04-27T19:44:59.041Z,42.65
2023-04-27T19:47:33.284Z,43.04
2023-04-27T19:50:05.152Z,43.57
2023-04-27T19:52:33.480Z,43.20
2023-04-27T19:55:01.597Z,43.09
2023-04-27T19:57:32.994Z,42.96
2023-04-27T20:00:02.030Z,44.02
2023-04-27T20:02:41.208Z,44.66
2023-04-27T20:05:13.696Z,44.55
2023-04-27T20:07:42.805Z,43.87
2023-04-27T20:10:16.048Z,44.38
2023-04-27T20:12:56.134Z,45.07
2023-04-27T20:15:25.564Z,45.64
2023-04-27T20:17:54.091Z,45.42
2023-04-27T20:20:29.130Z,45.45
2023-04-27T20:22:58.977Z,45.13
2023-04-27T20:25:28.400Z,44.34
2023-04-27T20:27:57.038Z,44.25
2023-04-27T20:33:01.534Z,44.86
2023-04-27T20:35:30.304Z,45.77
2023-04-27T20:37:59.213Z,46.26
2023-04-27T20:40:30.242Z,45.93
2023-04-27T20:42:59.324Z,45.18
2023-04-27T20:45:28.825Z,45.69
2023-04-27T20:47:58.054Z,45.23
2023-04-27T20:53:00.878Z,44.89
2023-04-27T20:55:28.848Z,44.83
2023-04-27T20:58:00.005Z,44.56
2023-04-27T21:00:33.069Z,44.57
2023-04-27T21:03:09.099Z,45.47
2023-04-27T21:05:41.488Z,46.66
2023-04-27T21:08:09.909Z,46.25
2023-04-27T21:10:39.426Z,45.93
2023-04-27T21:13:07.333Z,45.46
2023-04-27T21:15:35.350Z,44.36
2023-04-27T21:18:07.913Z,45.52
2023-04-27T21:20:37.993Z,46.29
2023-04-27T21:23:05.558Z,46.74
2023-04-27T21:25:33.303Z,47.16
2023-04-27T21:28:03.586Z,46.58
2023-04-27T21:30:31.440Z,46.74
2023-04-27T21:32:59.365Z,45.92
2023-04-27T21:35:27.403Z,45.47
2023-04-27T21:37:56.692Z,46.07
2023-04-27T21:40:24.353Z,46.67
2023-04-27T21:42:54.054Z,47.42
2023-04-27T21:45:21.592Z,46.33
2023-04-27T21:47:49.355Z,46.59
2023-04-27T21:50:17.577Z,46.34
2023-04-27T21:52:45.100Z,46.41
2023-04-27T21:55:13.136Z,46.41
2023-04-27T21:57:42.193Z,46.75
2023-04-27T22:00:14.090Z,45.89
2023-04-27T22:02:45.914Z,46.68
2023-04-27T22:05:14.459Z,47.40
2023-04-27T22:07:42.511Z,47.14
2023-04-27T22:10:14.069Z,46.93
2023-04-27T22:12:43.893Z,47.32
2023-04-27T22:15:11.533Z,46.78
2023-04-27T22:17:39.826Z,46.94
2023-04-27T22:20:11.344Z,48.13
2023-04-27T22:22:38.557Z,48.00
2023-04-27T22:25:07.978Z,48.38
2023-04-27T22:27:44.978Z,48.11
2023-04-27T22:30:13.621Z,48.62
2023-04-27T22:32:43.991Z,48.84
2023-04-27T22:35:24.777Z,48.68
2023-04-27T22:38:01.131Z,48.96
2023-04-27T22:40:32.083Z,49.16
2023-04-27T22:43:00.556Z,49.01
2023-04-27T22:45:28.817Z,48.21
2023-04-27T22:47:58.455Z,48.82
2023-04-27T22:50:29.331Z,49.23
2023-04-27T22:52:59.940Z,49.43
2023-04-27T22:55:27.939Z,49.71
2023-04-27T22:57:56.407Z,50.18
2023-04-27T23:00:24.040Z,50.36
2023-04-27T23:02:59.962Z,49.98
2023-04-27T23:05:29.925Z,49.49
2023-04-27T23:07:57.671Z,50.09
2023-04-27T23:10:25.004Z,49.64
2023-04-27T23:12:57.234Z,50.09
2023-04-27T23:15:24.551Z,49.62
2023-04-27T23:17:57.509Z,50.25
2023-04-27T23:20:28.842Z,49.76
2023-04-27T23:22:57.087Z,49.38
2023-04-27T23:25:24.456Z,49.81
2023-04-27T23:27:58.128Z,50.46
2023-04-27T23:30:26.157Z,51.13
2023-04-27T23:32:53.587Z,50.62
2023-04-27T23:35:21.101Z,50.47
2023-04-27T23:37:49.258Z,50.71
2023-04-27T23:40:16.730Z,50.53
2023-04-27T23:42:44.053Z,50.58
2023-04-27T23:45:12.497Z,50.35
2023-04-27T23:47:40.513Z,50.73
2023-04-27T23:50:08.073Z,50.55
2023-04-27T23:52:35.836Z,50.54
2023-04-27T23:55:05.026Z,50.77
2023-04-27T23:57:32.233Z,51.00
